createdAt,value
2023-12-15T00:01:36.446Z,6.82
2023-12-15T00:04:04.822Z,7.57
2023-12-15T00:06:33.070Z,12.82
2023-12-15T00:09:01.500Z,8.82
2023-12-15T00:11:29.844Z,10.23
2023-12-15T00:13:59.638Z,9.68
2023-12-15T00:16:27.917Z,10.10
2023-12-15T00:18:56.242Z,9.68
2023-12-15T00:21:25.461Z,9.82
2023-12-15T00:23:53.656Z,9.30
2023-12-15T00:26:21.940Z,7.78
2023-12-15T00:28:50.265Z,9.68
2023-12-15T00:31:19.894Z,8.70
2023-12-15T00:33:48.321Z,9.52
2023-12-15T00:36:16.611Z,9.63
2023-12-15T00:38:44.891Z,9.75
2023-12-15T00:41:13.137Z,8.73
2023-12-15T00:43:41.322Z,7.57
2023-12-15T00:46:24.204Z,9.25
2023-12-15T00:49:30.683Z,8.82
2023-12-15T00:52:11.141Z,8.30
2023-12-15T00:54:44.559Z,8.32
2023-12-15T00:57:20.472Z,9.05
2023-12-15T00:59:53.563Z,8.60
2023-12-15T01:02:27.993Z,8.98
2023-12-15T01:05:45.438Z,10.02
2023-12-15T01:08:23.868Z,8.53
2023-12-15T01:11:11.447Z,9.75
2023-12-15T01:13:44.413Z,11.52
2023-12-15T01:16:35.468Z,10.35
2023-12-15T01:19:24.691Z,12.02
2023-12-15T01:26:00.841Z,11.07
2023-12-15T01:28:37.091Z,9.93
2023-12-15T01:31:17.766Z,10.10
2023-12-15T01:33:50.889Z,9.48
2023-12-15T01:40:00.589Z,9.82
2023-12-15T01:42:28.923Z,9.80
2023-12-15T01:45:01.624Z,9.82
2023-12-15T01:47:48.960Z,14.60
2023-12-15T01:50:17.895Z,9.20
2023-12-15T01:52:46.367Z,11.02
2023-12-15T01:55:16.188Z,10.60
2023-12-15T01:57:45.809Z,11.68
2023-12-15T02:00:15.033Z,13.07
2023-12-15T02:02:43.365Z,12.75
2023-12-15T02:05:12.848Z,14.00
2023-12-15T02:07:42.365Z,13.18
2023-12-15T02:10:11.103Z,12.35
2023-12-15T02:12:41.486Z,14.43
2023-12-15T02:15:11.557Z,13.13
2023-12-15T02:17:40.723Z,11.38
2023-12-15T02:20:10.267Z,9.52
2023-12-15T02:22:40.102Z,10.85
2023-12-15T02:25:08.941Z,11.75
2023-12-15T02:27:37.453Z,12.45
2023-12-15T02:30:06.832Z,11.98
2023-12-15T02:32:35.244Z,12.57
2023-12-15T02:35:03.617Z,13.75
2023-12-15T02:37:32.211Z,11.55
2023-12-15T02:40:01.895Z,7.90
2023-12-15T02:42:30.121Z,11.18
2023-12-15T02:44:58.381Z,9.93
2023-12-15T02:47:26.772Z,10.65
2023-12-15T02:49:55.706Z,10.60
2023-12-15T02:52:24.037Z,7.25
2023-12-15T02:54:52.404Z,10.57
2023-12-15T02:57:22.116Z,10.43
2023-12-15T02:59:50.458Z,11.30
2023-12-15T03:02:18.786Z,11.43
2023-12-15T03:04:47.081Z,10.07
2023-12-15T03:07:15.437Z,15.50
2023-12-15T03:09:43.646Z,10.95
2023-12-15T03:12:11.908Z,13.73
2023-12-15T03:14:41.559Z,12.30
2023-12-15T03:17:09.956Z,12.70
2023-12-15T03:19:41.099Z,13.35
2023-12-15T03:22:09.407Z,12.23
2023-12-15T03:24:37.643Z,11.02
2023-12-15T03:27:06.455Z,12.50
2023-12-15T03:29:34.801Z,11.68
2023-12-15T03:32:04.761Z,10.70
2023-12-15T03:34:33.875Z,10.38
2023-12-15T03:37:02.192Z,11.77
2023-12-15T03:39:30.472Z,11.10
2023-12-15T03:41:58.841Z,9.98
2023-12-15T03:44:27.275Z,10.85
2023-12-15T03:46:55.562Z,11.65
2023-12-15T03:49:25.246Z,10.98
2023-12-15T03:51:53.611Z,11.50
2023-12-15T03:54:22.013Z,10.68
2023-12-15T03:56:57.083Z,11.15
2023-12-15T03:59:25.444Z,10.30
2023-12-15T04:01:54.036Z,9.98
2023-12-15T04:04:22.680Z,11.73
2023-12-15T04:06:52.360Z,8.90
2023-12-15T04:09:20.614Z,12.15
2023-12-15T04:11:48.970Z,11.55
2023-12-15T04:14:18.350Z,13.45
2023-12-15T04:16:46.603Z,8.90
2023-12-15T04:19:15.090Z,12.05
2023-12-15T04:21:43.485Z,10.48
2023-12-15T04:24:13.154Z,11.13
2023-12-15T04:26:41.450Z,12.15
2023-12-15T04:29:09.582Z,11.38
2023-12-15T04:31:37.819Z,13.85
2023-12-15T04:34:06.038Z,9.77
2023-12-15T04:36:34.863Z,10.60
2023-12-15T04:39:04.019Z,10.95
2023-12-15T04:41:33.645Z,10.15
2023-12-15T04:44:01.819Z,9.60
2023-12-15T04:46:31.208Z,11.27
2023-12-15T04:49:01.784Z,11.60
2023-12-15T04:51:30.413Z,10.63
2023-12-15T04:53:59.658Z,9.77
2023-12-15T04:56:26.892Z,9.10
2023-12-15T04:58:56.528Z,9.50
2023-12-15T05:01:26.589Z,12.25
2023-12-15T05:03:54.948Z,11.98
2023-12-15T05:06:24.643Z,12.43
2023-12-15T05:08:53.488Z,11.00
2023-12-15T05:11:22.501Z,9.27
2023-12-15T05:13:50.790Z,10.25
2023-12-15T05:16:34.392Z,11.60
2023-12-15T05:19:02.866Z,13.23
2023-12-15T05:21:31.130Z,12.50
2023-12-15T05:24:00.867Z,14.40
2023-12-15T05:26:29.141Z,14.80
2023-12-15T05:28:59.734Z,16.42
2023-12-15T05:31:29.667Z,13.57
2023-12-15T05:33:57.940Z,15.52
2023-12-15T05:36:26.227Z,15.32
2023-12-15T05:38:55.220Z,16.75
2023-12-15T05:41:23.762Z,14.85
2023-12-15T05:43:51.975Z,18.13
2023-12-15T05:46:21.184Z,16.70
2023-12-15T05:48:51.195Z,15.68
2023-12-15T05:51:19.490Z,17.40
2023-12-15T05:53:55.208Z,16.70
2023-12-15T05:56:43.713Z,15.60
2023-12-15T05:59:16.594Z,15.80
2023-12-15T06:01:52.261Z,18.48
2023-12-15T06:07:25.640Z,19.50
2023-12-15T06:09:53.824Z,17.17
2023-12-15T06:12:26.147Z,17.88
2023-12-15T06:14:55.235Z,15.68
2023-12-15T06:17:23.375Z,15.38
2023-12-15T06:19:59.102Z,17.15
2023-12-15T06:22:27.289Z,14.05
2023-12-15T06:24:55.542Z,14.10
2023-12-15T06:27:23.752Z,12.38
2023-12-15T06:29:51.915Z,14.45
2023-12-15T06:32:20.062Z,15.23
2023-12-15T06:34:48.315Z,14.10
2023-12-15T06:37:17.960Z,14.32
2023-12-15T06:39:46.714Z,16.25
2023-12-15T06:42:14.966Z,17.13
2023-12-15T06:44:43.159Z,15.00
2023-12-15T06:47:11.376Z,14.48
2023-12-15T06:49:39.595Z,15.45
2023-12-15T06:52:08.996Z,13.70
2023-12-15T06:54:41.119Z,15.40
2023-12-15T06:57:09.714Z,16.25
2023-12-15T06:59:37.924Z,16.27
2023-12-15T07:02:06.398Z,17.90
2023-12-15T07:04:34.687Z,12.32
2023-12-15T07:07:03.163Z,18.08
2023-12-15T07:09:31.500Z,18.15
2023-12-15T07:12:02.558Z,18.17
2023-12-15T07:14:30.860Z,17.02
2023-12-15T07:16:59.171Z,23.33
2023-12-15T07:19:27.501Z,23.45
2023-12-15T07:21:55.871Z,20.20
2023-12-15T07:24:24.038Z,19.83
2023-12-15T07:26:52.282Z,19.90
2023-12-15T07:29:23.344Z,18.00
2023-12-15T07:31:51.837Z,16.08
2023-12-15T07:34:20.170Z,17.75
2023-12-15T07:36:48.479Z,17.10
2023-12-15T07:39:22.282Z,16.77
2023-12-15T07:41:50.443Z,16.45
2023-12-15T07:44:19.241Z,16.40
2023-12-15T07:46:48.833Z,16.85
2023-12-15T07:49:17.062Z,14.93
2023-12-15T07:51:45.158Z,15.23
2023-12-15T07:54:13.438Z,15.38
2023-12-15T07:56:41.688Z,15.23
2023-12-15T07:59:11.442Z,14.65
2023-12-15T08:01:39.645Z,13.40
2023-12-15T08:04:11.620Z,16.80
2023-12-15T08:06:39.869Z,14.65
2023-12-15T08:09:08.032Z,14.40
2023-12-15T08:11:36.284Z,17.88
2023-12-15T08:14:04.642Z,13.23
2023-12-15T08:16:33.165Z,15.43
2023-12-15T08:19:04.796Z,15.50
2023-12-15T08:21:34.500Z,16.40
2023-12-15T08:24:02.594Z,20.27
2023-12-15T08:26:31.454Z,17.13
2023-12-15T08:28:59.747Z,15.23
2023-12-15T08:31:28.091Z,16.83
2023-12-15T08:33:57.573Z,16.17
2023-12-15T08:36:25.732Z,16.35
2023-12-15T08:38:55.531Z,17.73
2023-12-15T08:41:23.731Z,16.30
2023-12-15T08:43:51.828Z,17.48
2023-12-15T08:46:20.011Z,19.17
2023-12-15T08:48:48.294Z,25.08
2023-12-15T08:51:16.540Z,53.05
2023-12-15T08:53:44.751Z,22.20
2023-12-15T08:56:14.332Z,18.52
2023-12-15T09:01:10.605Z,16.58
2023-12-15T09:03:38.966Z,15.90
2023-12-15T09:06:25.460Z,15.65
2023-12-15T09:08:57.174Z,16.38
2023-12-15T09:11:27.070Z,15.45
2023-12-15T09:13:55.398Z,16.40
2023-12-15T09:16:23.657Z,14.40
2023-12-15T09:18:51.926Z,16.52
2023-12-15T09:21:20.224Z,15.85
2023-12-15T09:23:49.293Z,18.27
2023-12-15T09:26:17.667Z,15.18
2023-12-15T09:28:47.381Z,15.90
2023-12-15T09:31:15.504Z,16.15
2023-12-15T09:33:43.843Z,18.10
2023-12-15T09:36:12.358Z,21.30
2023-12-15T09:38:40.568Z,17.30
2023-12-15T09:41:10.152Z,17.52
2023-12-15T09:46:09.460Z,18.85
2023-12-15T09:48:38.534Z,17.63
2023-12-15T09:51:11.207Z,18.83
2023-12-15T09:53:40.629Z,17.83
2023-12-15T09:56:09.905Z,17.27
2023-12-15T09:58:39.085Z,17.65
2023-12-15T10:01:09.262Z,17.45
2023-12-15T10:03:37.591Z,17.90
2023-12-15T10:06:07.229Z,17.08
2023-12-15T10:11:31.151Z,19.00
2023-12-15T10:13:59.593Z,16.80
2023-12-15T10:16:30.747Z,16.45
2023-12-15T10:18:59.212Z,15.18
2023-12-15T10:21:28.550Z,14.20
2023-12-15T10:23:57.134Z,13.57
2023-12-15T10:26:25.358Z,15.52
2023-12-15T10:28:57.465Z,14.75
2023-12-15T10:31:28.390Z,13.65
2023-12-15T10:33:59.374Z,13.45
2023-12-15T10:36:28.754Z,13.15
2023-12-15T10:38:57.098Z,13.07
2023-12-15T10:41:25.550Z,14.05
2023-12-15T10:43:54.763Z,12.27
2023-12-15T10:46:24.380Z,15.32
2023-12-15T10:48:54.276Z,12.13
2023-12-15T10:51:25.971Z,12.02
2023-12-15T10:53:54.985Z,10.07
2023-12-15T10:56:23.873Z,10.95
2023-12-15T10:58:52.308Z,11.43
2023-12-15T11:01:20.990Z,10.90
2023-12-15T11:03:49.197Z,10.60
2023-12-15T11:06:29.387Z,7.20
2023-12-15T11:09:02.307Z,9.02
2023-12-15T11:11:32.065Z,9.82
2023-12-15T11:14:05.568Z,8.38
2023-12-15T11:16:35.564Z,7.80
2023-12-15T11:19:04.378Z,10.20
2023-12-15T11:21:35.520Z,8.23
2023-12-15T11:24:05.980Z,12.35
2023-12-15T11:26:36.395Z,9.30
2023-12-15T11:29:04.823Z,11.15
2023-12-15T11:31:35.077Z,9.18
2023-12-15T11:34:04.405Z,9.35
2023-12-15T11:36:42.939Z,9.23
2023-12-15T11:39:13.978Z,10.38
2023-12-15T11:41:43.780Z,8.85
2023-12-15T11:44:12.092Z,11.38
2023-12-15T11:46:40.425Z,6.93
2023-12-15T11:49:09.804Z,9.02
2023-12-15T11:51:39.658Z,9.35
2023-12-15T11:54:08.570Z,7.43
2023-12-15T11:56:36.846Z,7.95
2023-12-15T11:59:05.194Z,8.02
2023-12-15T12:01:37.364Z,7.35
2023-12-15T12:04:06.350Z,7.10
2023-12-15T12:06:35.023Z,6.55
2023-12-15T12:09:05.101Z,15.10
2023-12-15T12:11:33.198Z,7.72
2023-12-15T12:14:03.509Z,6.15
2023-12-15T12:16:34.200Z,7.22
2023-12-15T12:19:03.475Z,8.07
2023-12-15T12:21:32.975Z,5.93
2023-12-15T12:24:02.188Z,8.73
2023-12-15T12:26:32.037Z,6.13
2023-12-15T12:29:03.080Z,5.47
2023-12-15T12:31:31.790Z,6.25
2023-12-15T12:34:00.035Z,7.25
2023-12-15T12:36:29.858Z,6.55
2023-12-15T12:38:58.298Z,7.03
2023-12-15T12:41:26.899Z,7.28
2023-12-15T12:43:56.611Z,8.77
2023-12-15T12:46:24.890Z,8.35
2023-12-15T12:48:53.218Z,9.48
2023-12-15T12:51:21.926Z,8.52
2023-12-15T12:53:50.274Z,7.68
2023-12-15T12:56:19.033Z,6.63
2023-12-15T12:58:47.561Z,5.32
2023-12-15T13:01:17.375Z,8.73
2023-12-15T13:03:46.725Z,8.85
2023-12-15T13:06:14.864Z,8.18
2023-12-15T13:08:43.065Z,10.35
2023-12-15T13:11:14.899Z,11.32
2023-12-15T13:13:43.125Z,23.10
2023-12-15T13:16:12.093Z,8.25
2023-12-15T13:18:42.582Z,6.13
2023-12-15T13:21:11.522Z,8.93
2023-12-15T13:23:39.839Z,7.10
2023-12-15T13:26:09.958Z,6.63
2023-12-15T13:28:40.384Z,8.75
2023-12-15T13:31:08.689Z,13.10
2023-12-15T13:33:37.721Z,14.65
2023-12-15T13:36:13.821Z,14.77
2023-12-15T13:38:45.067Z,13.32
2023-12-15T13:41:13.893Z,10.90
2023-12-15T13:43:43.820Z,11.10
2023-12-15T13:46:12.351Z,10.48
2023-12-15T13:48:41.079Z,11.90
2023-12-15T13:51:11.285Z,9.93
2023-12-15T13:53:39.816Z,10.63
2023-12-15T13:56:09.012Z,10.55
2023-12-15T13:58:37.300Z,11.75
2023-12-15T14:01:06.851Z,10.10
2023-12-15T14:06:05.389Z,9.95
2023-12-15T14:08:35.512Z,11.43
2023-12-15T14:11:05.660Z,10.18
2023-12-15T14:13:34.201Z,9.65
2023-12-15T14:16:08.625Z,14.47
2023-12-15T14:18:39.539Z,13.15
2023-12-15T14:21:08.481Z,11.20
2023-12-15T14:23:38.411Z,12.53
2023-12-15T14:26:07.092Z,12.77
2023-12-15T14:28:36.073Z,13.35
2023-12-15T14:31:04.632Z,8.93
2023-12-15T14:33:33.286Z,13.00
2023-12-15T14:36:02.871Z,11.57
2023-12-15T14:38:31.346Z,14.45
2023-12-15T14:41:04.121Z,16.85
2023-12-15T14:43:33.032Z,16.77
2023-12-15T14:46:01.297Z,13.65
2023-12-15T14:48:30.086Z,12.07
2023-12-15T14:51:00.794Z,14.68
2023-12-15T14:53:29.219Z,12.30
2023-12-15T14:55:57.974Z,12.33
2023-12-15T14:58:27.790Z,12.30
2023-12-15T15:00:56.479Z,19.50
2023-12-15T15:03:25.145Z,17.53
2023-12-15T15:05:55.197Z,15.38
2023-12-15T15:08:23.677Z,18.58
2023-12-15T15:10:52.068Z,17.05
2023-12-15T15:13:22.576Z,15.48
2023-12-15T15:15:53.773Z,15.70
2023-12-15T15:18:23.110Z,17.75
2023-12-15T15:20:51.841Z,28.63
2023-12-15T15:23:20.189Z,21.00
2023-12-15T15:25:48.548Z,15.13
2023-12-15T15:28:16.866Z,12.05
2023-12-15T15:30:45.686Z,10.85
2023-12-15T15:36:03.962Z,12.30
2023-12-15T15:38:32.640Z,13.55
2023-12-15T15:41:01.646Z,11.23
2023-12-15T15:43:29.908Z,9.30
2023-12-15T15:45:58.316Z,13.52
2023-12-15T15:48:28.146Z,11.90
2023-12-15T15:50:56.697Z,16.02
2023-12-15T15:53:26.503Z,14.65
2023-12-15T15:55:54.780Z,16.73
2023-12-15T15:58:24.294Z,17.35
2023-12-15T16:00:53.141Z,15.77
2023-12-15T16:03:21.686Z,21.63
2023-12-15T16:05:51.548Z,22.05
2023-12-15T16:08:19.870Z,16.92
2023-12-15T16:10:48.173Z,15.35
2023-12-15T16:13:16.593Z,14.35
2023-12-15T16:15:45.186Z,14.75
2023-12-15T16:18:13.754Z,14.52
2023-12-15T16:20:42.184Z,17.33
2023-12-15T16:23:12.003Z,20.42
2023-12-15T16:25:40.259Z,18.42
2023-12-15T16:28:09.752Z,20.50
2023-12-15T16:33:06.407Z,17.40
2023-12-15T16:35:34.843Z,23.63
2023-12-15T16:38:03.576Z,28.00
2023-12-15T16:40:33.259Z,20.95
2023-12-15T16:43:01.884Z,18.05
2023-12-15T16:45:30.135Z,13.50
2023-12-15T16:47:58.372Z,16.17
2023-12-15T16:50:26.685Z,17.10
2023-12-15T16:52:54.975Z,17.40
2023-12-15T16:55:23.471Z,20.27
2023-12-15T17:00:24.841Z,20.90
2023-12-15T17:02:53.179Z,22.45
2023-12-15T17:05:21.500Z,14.40
2023-12-15T17:07:49.842Z,18.20
2023-12-15T17:10:18.460Z,18.15
2023-12-15T17:12:46.736Z,16.97
2023-12-15T17:15:16.839Z,18.80
2023-12-15T17:17:54.378Z,19.00
2023-12-15T17:20:27.190Z,21.98
2023-12-15T17:22:56.852Z,22.85
2023-12-15T17:25:25.574Z,19.88
2023-12-15T17:27:53.911Z,13.77
2023-12-15T17:30:24.242Z,15.60
2023-12-15T17:32:52.604Z,22.30
2023-12-15T17:35:20.850Z,17.95
2023-12-15T17:37:49.329Z,16.38
2023-12-15T17:40:18.339Z,12.50
2023-12-15T17:42:46.577Z,14.80
2023-12-15T17:45:14.902Z,14.38
2023-12-15T17:47:44.862Z,12.32
2023-12-15T17:50:15.271Z,12.25
2023-12-15T17:52:44.431Z,13.05
2023-12-15T17:55:13.658Z,10.55
2023-12-15T17:57:42.529Z,12.10
2023-12-15T18:00:11.944Z,14.40
2023-12-15T18:02:40.122Z,14.90
2023-12-15T18:05:10.223Z,18.80
2023-12-15T18:07:38.887Z,22.30
2023-12-15T18:10:08.675Z,15.23
2023-12-15T18:12:37.637Z,18.65
2023-12-15T18:15:07.618Z,19.40
2023-12-15T18:17:36.172Z,17.52
2023-12-15T18:20:05.025Z,18.67
2023-12-15T18:22:35.232Z,13.07
2023-12-15T18:25:03.755Z,16.73
2023-12-15T18:27:32.028Z,17.43
2023-12-15T18:30:00.825Z,19.77
2023-12-15T18:32:29.096Z,18.10
2023-12-15T18:34:57.436Z,20.35
2023-12-15T18:37:25.631Z,17.77
2023-12-15T18:39:55.332Z,17.40
2023-12-15T18:42:24.396Z,19.50
2023-12-15T18:44:52.936Z,21.88
2023-12-15T18:47:22.627Z,20.67
2023-12-15T18:49:50.940Z,22.42
2023-12-15T18:52:20.281Z,21.92
2023-12-15T18:54:49.327Z,22.75
2023-12-15T18:57:21.812Z,25.02
2023-12-15T18:59:50.046Z,25.58
2023-12-15T19:04:51.937Z,40.53
2023-12-15T19:07:22.272Z,34.03
2023-12-15T19:09:50.558Z,42.28
2023-12-15T19:12:20.204Z,28.42
2023-12-15T19:14:48.470Z,26.30
2023-12-15T19:17:16.743Z,23.55
2023-12-15T19:19:46.368Z,20.13
2023-12-15T19:22:14.795Z,20.23
2023-12-15T19:24:43.042Z,20.30
2023-12-15T19:27:11.569Z,19.30
2023-12-15T19:29:41.585Z,15.70
2023-12-15T19:32:09.812Z,14.82
2023-12-15T19:34:38.309Z,15.63
2023-12-15T19:37:07.213Z,15.38
2023-12-15T19:39:36.372Z,15.75
2023-12-15T19:42:05.001Z,16.48
2023-12-15T19:44:33.288Z,14.80
2023-12-15T19:47:02.935Z,16.13
2023-12-15T19:51:59.752Z,16.88
2023-12-15T19:54:28.023Z,13.13
2023-12-15T19:56:56.240Z,18.48
2023-12-15T19:59:26.452Z,21.10
2023-12-15T20:01:57.278Z,20.88
2023-12-15T20:04:27.308Z,21.48
2023-12-15T20:06:55.622Z,15.65
2023-12-15T20:09:24.224Z,19.50
2023-12-15T20:11:52.498Z,17.00
2023-12-15T20:14:20.938Z,17.92
2023-12-15T20:16:53.404Z,13.23
2023-12-15T20:19:22.277Z,14.35
2023-12-15T20:21:52.350Z,13.35
2023-12-15T20:24:20.662Z,12.85
2023-12-15T20:26:48.968Z,11.57
2023-12-15T20:29:17.253Z,13.23
2023-12-15T20:31:46.215Z,13.13
2023-12-15T20:34:16.595Z,14.30
2023-12-15T20:36:45.123Z,12.65
2023-12-15T20:39:16.589Z,11.07
2023-12-15T20:41:45.376Z,12.25
2023-12-15T20:44:15.916Z,12.35
2023-12-15T20:46:46.222Z,11.43
2023-12-15T20:49:14.759Z,12.60
2023-12-15T20:51:43.289Z,11.52
2023-12-15T20:54:11.851Z,12.43
2023-12-15T20:56:43.024Z,11.43
2023-12-15T20:59:12.248Z,11.77
2023-12-15T21:01:40.666Z,12.38
2023-12-15T21:04:09.219Z,11.40
2023-12-15T21:06:37.480Z,14.40
2023-12-15T21:09:06.402Z,11.65
2023-12-15T21:11:36.442Z,10.40
2023-12-15T21:14:06.195Z,12.70
2023-12-15T21:16:35.452Z,11.68
2023-12-15T21:19:03.846Z,15.05
2023-12-15T21:21:35.391Z,12.90
2023-12-15T21:24:04.492Z,11.75
2023-12-15T21:26:33.150Z,14.65
2023-12-15T21:29:01.446Z,13.73
2023-12-15T21:31:32.285Z,11.77
2023-12-15T21:34:00.769Z,15.38
2023-12-15T21:36:29.139Z,13.18
2023-12-15T21:38:57.383Z,11.95
2023-12-15T21:41:25.969Z,11.00
2023-12-15T21:43:56.264Z,8.97
2023-12-15T21:46:24.584Z,12.15
2023-12-15T21:48:56.498Z,10.90
2023-12-15T21:51:28.056Z,11.95
2023-12-15T21:53:56.596Z,10.45
2023-12-15T21:56:25.134Z,11.38
2023-12-15T21:58:55.124Z,9.35
2023-12-15T22:01:24.109Z,11.85
2023-12-15T22:03:55.460Z,13.48
2023-12-15T22:06:24.289Z,17.50
2023-12-15T22:08:53.036Z,12.70
2023-12-15T22:11:21.323Z,16.85
2023-12-15T22:13:49.593Z,14.40
2023-12-15T22:16:18.252Z,14.38
2023-12-15T22:18:46.721Z,12.82
2023-12-15T22:21:16.536Z,9.88
2023-12-15T22:23:45.228Z,9.68
2023-12-15T22:26:14.663Z,6.85
2023-12-15T22:31:11.804Z,14.23
2023-12-15T22:33:40.477Z,16.80
2023-12-15T22:36:09.619Z,18.48
2023-12-15T22:38:40.022Z,14.70
2023-12-15T22:41:13.786Z,14.98
2023-12-15T22:43:43.721Z,13.88
2023-12-15T22:46:12.094Z,13.88
2023-12-15T22:48:43.997Z,16.27
2023-12-15T22:51:12.527Z,16.38
2023-12-15T22:53:41.355Z,15.00
2023-12-15T22:56:10.777Z,10.15
2023-12-15T23:01:07.679Z,12.23
2023-12-15T23:03:36.001Z,10.55
2023-12-15T23:06:05.479Z,16.40
2023-12-15T23:11:03.393Z,13.55
2023-12-15T23:13:32.355Z,13.73
2023-12-15T23:16:01.727Z,17.67
2023-12-15T23:21:06.685Z,13.35
2023-12-15T23:23:37.928Z,13.45
2023-12-15T23:26:10.238Z,20.63
2023-12-15T23:28:38.644Z,20.65
2023-12-15T23:31:08.231Z,16.25
2023-12-15T23:36:11.778Z,12.60
2023-12-15T23:38:40.241Z,12.52
2023-12-15T23:41:10.577Z,12.15
2023-12-15T23:43:38.870Z,11.15
2023-12-15T23:46:07.258Z,10.88
2023-12-15T23:48:36.083Z,11.20
2023-12-15T23:51:04.679Z,10.15
2023-12-15T23:53:32.971Z,10.23
2023-12-15T23:56:01.206Z,13.70
2023-12-15T23:58:31.709Z,11.02
